Time;durP1;ratioP1;P1;durP2;ratioP2;P2;SDS_P1;SDS_P2;PMS_P1;PMS_P2;Temp;Humidity;BMP_temperature;BMP_pressure;BME280_temperature;BME280_humidity;BME280_pressure;Samples;Min_cycle;Max_cycle;Signal;HPM_P1;HPM_P2
2021/08/15 00:01:04;;;;;;;23.73;11.63;;;18.70;99.90;;;;;;6389183;22;20414;-96
2021/08/15 00:03:50;;;;;;;23.13;11.82;;;18.60;99.90;;;;;;6387941;22;20383;-96
2021/08/15 00:06:23;;;;;;;23.30;11.93;;;18.50;99.90;;;;;;6387766;22;20367;-96
2021/08/15 00:08:54;;;;;;;21.67;10.85;;;18.40;99.90;;;;;;6384006;22;20405;-96
2021/08/15 00:11:25;;;;;;;23.13;12.05;;;18.50;99.90;;;;;;6386872;22;20401;-96
2021/08/15 00:13:54;;;;;;;20.85;11.35;;;18.40;99.90;;;;;;6384643;22;20371;-96
2021/08/15 00:16:21;;;;;;;27.02;11.85;;;18.40;99.90;;;;;;6388620;22;20379;-96
2021/08/15 00:18:51;;;;;;;18.67;11.82;;;18.50;99.90;;;;;;6387762;22;20375;-96
2021/08/15 00:21:43;;;;;;;23.45;11.68;;;18.50;99.90;;;;;;6360889;22;20371;-96
2021/08/15 00:24:22;;;;;;;18.58;11.60;;;18.50;99.90;;;;;;6389019;22;20378;-96
2021/08/15 00:26:56;;;;;;;21.33;11.17;;;18.40;99.90;;;;;;6386545;22;20380;-96
2021/08/15 00:29:25;;;;;;;20.77;11.43;;;18.50;99.90;;;;;;6385401;22;20480;-96
2021/08/15 00:32:04;;;;;;;23.77;10.63;;;18.60;99.90;;;;;;6361307;22;20383;-96
2021/08/15 00:34:46;;;;;;;19.45;11.50;;;18.60;99.90;;;;;;6383772;22;20371;-96
2021/08/15 00:37:18;;;;;;;22.13;10.88;;;18.60;99.90;;;;;;6357021;22;20385;-96
2021/08/15 00:39:54;;;;;;;23.52;10.57;;;18.70;99.90;;;;;;6334505;22;20387;-96
2021/08/15 00:42:27;;;;;;;21.80;11.73;;;18.60;99.90;;;;;;6387317;22;20438;-96
2021/08/15 00:45:06;;;;;;;20.90;10.98;;;18.70;99.90;;;;;;6362322;22;20363;-96
2021/08/15 00:47:38;;;;;;;17.73;11.02;;;18.60;99.90;;;;;;6387397;22;20375;-96
2021/08/15 00:50:09;;;;;;;23.57;11.43;;;18.60;99.90;;;;;;6361765;22;20426;-96
2021/08/15 00:52:46;;;;;;;22.02;11.48;;;18.40;99.90;;;;;;6360926;22;20375;-96
2021/08/15 00:55:18;;;;;;;19.83;11.43;;;18.40;99.90;;;;;;6387621;22;20391;-96
2021/08/15 00:57:48;;;;;;;29.13;11.98;;;18.50;99.90;;;;;;6386702;22;20375;-96
2021/08/15 01:00:24;;;;;;;24.33;11.80;;;18.40;99.90;;;;;;6386974;22;20383;-96
2021/08/15 01:02:58;;;;;;;24.65;12.18;;;18.40;99.90;;;;;;6365168;22;20388;-96
2021/08/15 01:05:38;;;;;;;24.63;12.73;;;18.20;99.90;;;;;;6305429;22;20383;-96
2021/08/15 01:08:37;;;;;;;23.23;12.70;;;18.20;99.90;;;;;;6336178;22;20383;-96
2021/08/15 01:11:11;;;;;;;27.77;12.30;;;18.30;99.90;;;;;;6306163;22;20369;-96
2021/08/15 01:13:54;;;;;;;27.65;12.38;;;18.30;99.90;;;;;;6308329;22;20373;-96
2021/08/15 01:16:33;;;;;;;25.88;12.60;;;18.20;99.90;;;;;;6352799;22;20381;-96
2021/08/15 01:19:31;;;;;;;30.50;12.63;;;18.20;99.90;;;;;;6332000;22;20502;-96
2021/08/15 01:22:23;;;;;;;25.90;12.68;;;18.20;99.90;;;;;;6375573;22;20426;-96
2021/08/15 01:24:51;;;;;;;30.08;13.00;;;18.20;99.90;;;;;;6390691;22;20375;-96
2021/08/15 01:27:26;;;;;;;29.30;13.75;;;18.20;99.90;;;;;;6376784;22;20375;-96
2021/08/15 01:29:54;;;;;;;24.30;13.52;;;18.10;99.90;;;;;;6376656;22;20466;-96
2021/08/15 01:32:21;;;;;;;24.75;13.77;;;18.10;99.90;;;;;;6376206;22;20466;-96
2021/08/15 01:34:48;;;;;;;24.38;13.10;;;18.00;99.90;;;;;;6378157;22;20383;-95
2021/08/15 01:37:21;;;;;;;25.77;13.30;;;18.20;99.90;;;;;;6378052;22;20417;-96
2021/08/15 01:39:49;;;;;;;25.80;13.10;;;18.20;99.90;;;;;;6376077;22;20742;-96
2021/08/15 01:42:17;;;;;;;24.23;13.85;;;18.10;99.90;;;;;;6374980;22;20761;-96
2021/08/15 01:44:44;;;;;;;26.33;14.43;;;18.00;99.90;;;;;;6377083;22;20466;-96
2021/08/15 01:47:11;;;;;;;25.08;13.27;;;18.00;99.90;;;;;;6375521;22;20402;-96
2021/08/15 01:49:38;;;;;;;30.38;13.23;;;17.90;99.90;;;;;;6352673;22;20418;-96
2021/08/15 01:52:06;;;;;;;29.03;13.40;;;17.90;99.90;;;;;;6378985;22;20399;-96
2021/08/15 01:54:33;;;;;;;28.00;13.27;;;17.90;99.90;;;;;;6378685;22;20387;-96
2021/08/15 01:57:01;;;;;;;27.60;12.57;;;17.90;99.90;;;;;;6377269;22;20386;-96
2021/08/15 01:59:28;;;;;;;25.45;12.15;;;18.00;99.90;;;;;;6379657;22;20878;-96
2021/08/15 02:01:55;;;;;;;27.13;14.15;;;17.90;99.90;;;;;;6353787;22;20379;-96
2021/08/15 02:04:26;;;;;;;28.02;13.98;;;18.00;99.90;;;;;;6380800;22;20367;-96
2021/08/15 02:06:53;;;;;;;27.80;13.67;;;17.90;99.90;;;;;;6378779;22;20394;-96
2021/08/15 02:09:21;;;;;;;23.13;13.30;;;17.90;99.90;;;;;;6376655;22;20407;-96
2021/08/15 02:11:48;;;;;;;28.80;14.10;;;17.80;99.90;;;;;;6377530;22;20467;-96
2021/08/15 02:14:16;;;;;;;24.27;13.75;;;17.90;99.90;;;;;;6377531;22;20375;-96
2021/08/15 02:16:44;;;;;;;26.33;13.60;;;17.90;99.90;;;;;;6377572;22;20379;-96
2021/08/15 02:19:11;;;;;;;27.05;13.40;;;17.90;99.90;;;;;;6353426;22;20467;-96
2021/08/15 02:21:39;;;;;;;24.25;12.07;;;17.90;99.90;;;;;;6379322;22;20492;-95
2021/08/15 02:24:06;;;;;;;25.13;12.43;;;18.10;99.90;;;;;;6382856;22;20379;-95
2021/08/15 02:26:34;;;;;;;23.90;12.25;;;18.00;99.90;;;;;;6382936;22;20375;-96
2021/08/15 02:29:02;;;;;;;24.55;12.88;;;18.10;99.90;;;;;;6381832;22;20398;-95
2021/08/15 02:31:30;;;;;;;24.58;12.02;;;18.10;99.90;;;;;;6383060;22;20403;-96
2021/08/15 02:34:00;;;;;;;21.85;12.40;;;18.20;99.90;;;;;;6381813;22;20382;-96
2021/08/15 02:36:28;;;;;;;23.65;12.13;;;18.20;99.90;;;;;;6381084;22;20383;-96
2021/08/15 02:38:56;;;;;;;24.03;12.30;;;18.20;99.90;;;;;;6381647;22;20406;-96
2021/08/15 02:41:23;;;;;;;27.70;12.40;;;18.10;99.90;;;;;;6380440;22;20417;-96
2021/08/15 02:43:51;;;;;;;26.20;12.35;;;18.10;99.90;;;;;;6355539;22;20414;-96
2021/08/15 02:46:18;;;;;;;27.17;12.80;;;18.10;99.90;;;;;;6382019;22;20474;-96
2021/08/15 02:48:46;;;;;;;27.73;13.13;;;18.10;99.90;;;;;;6381503;22;20410;-96
2021/08/15 02:51:23;;;;;;;21.97;12.70;;;18.20;99.90;;;;;;6387329;22;20435;-96
2021/08/15 02:54:05;;;;;;;24.00;11.77;;;18.20;99.90;;;;;;6390547;22;20359;-96
2021/08/15 02:56:47;;;;;;;20.88;12.20;;;18.30;99.90;;;;;;6381963;22;20383;-96
2021/08/15 02:59:15;;;;;;;25.17;12.40;;;18.40;99.90;;;;;;6388163;22;20371;-96
2021/08/15 03:01:46;;;;;;;25.10;13.43;;;18.20;99.90;;;;;;6392387;22;20384;-96
2021/08/15 03:04:17;;;;;;;26.77;12.88;;;18.20;99.90;;;;;;6399313;22;20451;-96
2021/08/15 03:06:47;;;;;;;22.47;12.70;;;18.20;99.90;;;;;;6386029;22;20364;-96
2021/08/15 03:09:26;;;;;;;25.15;12.75;;;18.20;99.90;;;;;;6365365;22;20415;-96
2021/08/15 03:12:02;;;;;;;26.03;13.10;;;18.30;99.90;;;;;;6385802;22;20403;-96
2021/08/15 03:14:37;;;;;;;23.73;12.73;;;18.50;99.90;;;;;;6386376;22;20395;-95
2021/08/15 03:17:21;;;;;;;24.73;12.50;;;18.40;99.90;;;;;;6359305;22;20473;-96
2021/08/15 03:20:08;;;;;;;27.15;13.32;;;18.40;99.90;;;;;;6339240;22;20372;-96
2021/08/15 03:22:36;;;;;;;30.87;12.83;;;18.30;99.90;;;;;;6383923;22;20418;-95
2021/08/15 03:25:05;;;;;;;27.17;13.13;;;18.50;99.90;;;;;;6386043;22;20382;-96
2021/08/15 03:27:33;;;;;;;23.95;12.57;;;18.50;99.90;;;;;;6357582;22;20871;-96
2021/08/15 03:30:18;;;;;;;25.00;12.77;;;18.50;99.90;;;;;;6362080;22;20402;-95
2021/08/15 03:33:00;;;;;;;26.27;13.35;;;18.50;99.90;;;;;;6385380;22;20670;-96
2021/08/15 03:35:27;;;;;;;26.33;13.85;;;18.40;99.90;;;;;;6385579;22;20444;-96
2021/08/15 03:37:55;;;;;;;23.25;13.10;;;18.30;99.90;;;;;;6386069;22;20446;-96
2021/08/15 03:40:36;;;;;;;24.87;14.53;;;18.40;99.90;;;;;;6363554;22;20375;-96
2021/08/15 03:43:05;;;;;;;27.15;13.70;;;18.30;99.90;;;;;;6357836;22;20363;-96
2021/08/15 03:45:41;;;;;;;31.92;13.30;;;18.30;99.90;;;;;;6387947;22;20398;-96
2021/08/15 03:48:23;;;;;;;26.42;12.90;;;18.30;99.90;;;;;;6385607;22;20363;-96
2021/08/15 03:50:52;;;;;;;27.80;13.30;;;18.40;99.90;;;;;;6385405;22;20395;-96
2021/08/15 03:53:27;;;;;;;48.70;25.50;;;18.40;99.90;;;;;;6382151;22;20380;-96
2021/08/15 03:55:54;;;;;;;30.77;16.88;;;18.30;99.90;;;;;;6380061;22;20379;-96
2021/08/15 03:58:35;;;;;;;31.60;14.15;;;18.30;99.90;;;;;;6381291;22;20367;-96
2021/08/15 04:01:03;;;;;;;32.47;15.18;;;18.10;99.90;;;;;;6356407;22;20436;-96
2021/08/15 04:03:32;;;;;;;32.53;15.95;;;18.10;99.90;;;;;;6353063;22;20871;-96
2021/08/15 04:06:06;;;;;;;27.67;15.10;;;18.10;99.90;;;;;;6329538;22;20384;-96
2021/08/15 04:08:34;;;;;;;33.92;15.43;;;18.00;99.90;;;;;;6354778;22;20382;-96
2021/08/15 04:11:02;;;;;;;26.75;14.13;;;18.00;99.90;;;;;;6356074;22;20395;-96
2021/08/15 04:13:32;;;;;;;26.63;13.35;;;18.00;99.90;;;;;;6358663;22;20404;-96
2021/08/15 04:16:01;;;;;;;26.58;13.73;;;18.00;99.90;;;;;;6357453;22;20410;-96
2021/08/15 04:18:28;;;;;;;28.65;15.00;;;18.10;99.90;;;;;;6355449;22;20371;-96
2021/08/15 04:21:11;;;;;;;33.85;16.13;;;18.20;99.90;;;;;;6357355;22;20363;-96
2021/08/15 04:23:39;;;;;;;24.50;15.75;;;18.20;99.90;;;;;;6353671;22;20382;-96
2021/08/15 04:26:06;;;;;;;32.97;17.02;;;18.20;99.90;;;;;;6326297;22;20459;-96
2021/08/15 04:28:33;;;;;;;28.77;16.45;;;18.20;99.90;;;;;;6352849;22;20430;-96
2021/08/15 04:31:00;;;;;;;27.95;13.82;;;18.30;99.90;;;;;;6351375;22;20466;-96
2021/08/15 04:33:28;;;;;;;25.77;12.50;;;18.50;99.90;;;;;;6352280;22;20375;-96
2021/08/15 04:35:55;;;;;;;25.95;12.50;;;18.40;99.90;;;;;;6350323;22;20379;-96
2021/08/15 04:38:25;;;;;;;23.75;12.38;;;18.50;99.90;;;;;;6348853;22;20474;-96
2021/08/15 04:40:52;;;;;;;29.38;12.27;;;18.40;99.90;;;;;;6350407;22;20442;-96
2021/08/15 04:43:20;;;;;;;23.13;12.43;;;18.50;99.90;;;;;;6370767;22;20367;-96
2021/08/15 04:45:48;;;;;;;22.40;12.47;;;18.50;99.90;;;;;;6366029;22;20409;-96
2021/08/15 04:48:15;;;;;;;28.50;14.07;;;18.40;99.90;;;;;;6353127;22;20787;-96
2021/08/15 04:50:43;;;;;;;23.85;12.93;;;18.60;99.90;;;;;;6350963;22;20411;-96
2021/08/15 04:53:11;;;;;;;29.42;10.77;;;18.70;99.90;;;;;;6352953;22;20375;-96
2021/08/15 04:55:42;;;;;;;22.07;10.23;;;19.00;99.90;;;;;;6373435;22;20379;-96
2021/08/15 04:58:12;;;;;;;23.98;10.48;;;19.20;99.90;;;;;;6373122;22;20383;-96
2021/08/15 05:00:41;;;;;;;23.08;10.95;;;19.50;99.90;;;;;;6374715;22;20414;-96
2021/08/15 05:03:08;;;;;;;22.77;10.68;;;19.60;99.90;;;;;;6377858;22;20380;-96
2021/08/15 05:05:38;;;;;;;26.40;11.63;;;19.80;99.90;;;;;;6373542;22;20379;-96
2021/08/15 05:08:06;;;;;;;18.55;10.68;;;20.20;99.90;;;;;;6375060;22;20390;-96
2021/08/15 05:10:33;;;;;;;22.65;10.93;;;20.20;99.90;;;;;;6374161;22;20419;-96
2021/08/15 05:13:01;;;;;;;23.65;11.32;;;19.90;99.90;;;;;;6374383;22;20463;-96
2021/08/15 05:15:28;;;;;;;21.50;11.60;;;19.80;99.90;;;;;;6374244;22;20402;-96
2021/08/15 05:17:56;;;;;;;22.80;12.18;;;19.70;99.90;;;;;;6373388;22;20404;-96
2021/08/15 05:20:23;;;;;;;20.88;11.07;;;19.70;99.90;;;;;;6373089;22;20458;-96
2021/08/15 05:22:50;;;;;;;28.50;12.18;;;19.70;99.90;;;;;;6372774;22;20407;-96
2021/08/15 05:25:17;;;;;;;31.27;11.73;;;19.90;99.90;;;;;;6372558;22;20473;-96
2021/08/15 05:27:44;;;;;;;27.42;11.48;;;20.00;99.90;;;;;;6375356;22;20394;-96
2021/08/15 05:30:13;;;;;;;18.25;10.05;;;20.20;99.90;;;;;;6325287;22;20391;-96
2021/08/15 05:32:41;;;;;;;24.45;10.27;;;20.40;99.90;;;;;;6348381;22;20439;-96
2021/08/15 05:35:13;;;;;;;24.40;10.43;;;20.50;99.90;;;;;;6350102;22;20466;-96
2021/08/15 05:37:45;;;;;;;21.23;11.20;;;20.50;99.90;;;;;;6350624;22;20403;-96
2021/08/15 05:40:13;;;;;;;23.97;11.60;;;20.40;99.90;;;;;;6348576;22;20385;-96
2021/08/15 05:42:40;;;;;;;24.23;11.75;;;20.30;99.90;;;;;;6350892;22;20443;-96
2021/08/15 05:45:09;;;;;;;20.95;12.50;;;20.30;99.90;;;;;;6347493;22;20402;-96
2021/08/15 05:47:36;;;;;;;26.27;13.73;;;20.30;99.90;;;;;;6345680;22;20375;-96
2021/08/15 05:50:04;;;;;;;25.03;14.00;;;20.30;99.90;;;;;;6371282;22;20469;-96
2021/08/15 05:52:32;;;;;;;36.92;15.32;;;20.40;99.90;;;;;;6371886;22;20556;-96
2021/08/15 05:54:59;;;;;;;29.00;14.40;;;20.50;99.90;;;;;;6371292;22;20459;-96
2021/08/15 05:57:26;;;;;;;30.25;15.00;;;20.70;99.90;;;;;;6370557;22;20378;-96
2021/08/15 05:59:53;;;;;;;31.38;14.63;;;20.90;99.90;;;;;;6372531;22;20463;-96
2021/08/15 06:02:21;;;;;;;29.95;14.02;;;21.00;99.90;;;;;;6375021;22;20745;-96
2021/08/15 06:04:48;;;;;;;25.92;13.75;;;21.30;99.90;;;;;;6371812;22;20379;-96
2021/08/15 06:07:15;;;;;;;30.63;14.80;;;21.30;99.90;;;;;;6371135;22;20381;-96
2021/08/15 06:09:43;;;;;;;27.20;14.98;;;21.20;99.90;;;;;;6372026;22;20490;-96
2021/08/15 06:12:10;;;;;;;23.92;13.65;;;21.00;99.90;;;;;;6371900;22;20463;-96
2021/08/15 06:14:37;;;;;;;27.48;15.10;;;20.90;99.90;;;;;;6371506;22;20446;-96
2021/08/15 06:17:04;;;;;;;27.15;15.23;;;20.60;99.90;;;;;;6372021;22;20386;-96
2021/08/15 06:19:32;;;;;;;30.75;15.23;;;20.40;99.90;;;;;;6346174;22;20399;-96
2021/08/15 06:22:00;;;;;;;27.47;15.33;;;20.30;99.90;;;;;;6352086;22;20367;-96
2021/08/15 06:24:28;;;;;;;27.83;15.60;;;20.00;99.90;;;;;;6371056;22;20407;-96
2021/08/15 06:27:00;;;;;;;20.17;13.45;;;20.00;99.90;;;;;;6361193;22;21584;-96
2021/08/15 06:29:49;;;;;;;;;;;;;;;;;;;;;
2021/08/15 06:32:30;;;;;;;22.35;10.43;;;23.00;99.90;;;;;;6378953;22;20385;-96
2021/08/15 06:35:28;;;;;;;20.52;9.55;;;24.60;99.90;;;;;;6293280;22;20367;-96
2021/08/15 06:39:05;;;;;;;22.73;9.60;;;26.20;99.90;;;;;;6267594;22;20393;-96
2021/08/15 06:42:08;;;;;;;18.63;9.45;;;27.40;99.90;;;;;;6312624;22;20390;-96
2021/08/15 06:45:03;;;;;;;20.35;9.32;;;27.50;99.90;;;;;;6286620;22;20881;-96
2021/08/15 06:47:53;;;;;;;24.27;8.93;;;27.20;99.90;;;;;;6287764;22;20494;-96
2021/08/15 06:51:08;;;;;;;;;;;;;;;;;;;;;
2021/08/15 06:53:57;;;;;;;18.17;9.23;;;25.90;99.90;;;;;;6312588;22;20382;-96
2021/08/15 06:56:41;;;;;;;18.67;9.20;;;25.10;99.90;;;;;;6283652;22;20786;-96
2021/08/15 06:59:13;;;;;;;20.23;9.70;;;24.80;99.90;;;;;;6283341;22;20383;-96
2021/08/15 07:05:39;;;;;;;18.27;9.10;;;24.50;99.90;;;;;;6256521;22;20378;-96
2021/08/15 07:08:10;;;;;;;23.20;9.70;;;24.40;99.90;;;;;;6286219;22;20389;-96
2021/08/15 07:10:45;;;;;;;23.52;9.82;;;24.50;99.90;;;;;;6314063;22;20455;-96
2021/08/15 07:13:22;;;;;;;21.42;9.95;;;24.50;99.90;;;;;;6315016;22;20366;-96
2021/08/15 07:16:06;;;;;;;22.75;10.18;;;24.40;99.90;;;;;;6318054;22;20425;-96
2021/08/15 07:18:45;;;;;;;25.48;10.43;;;24.70;99.90;;;;;;6296950;22;20378;-96
2021/08/15 07:21:23;;;;;;;21.40;10.27;;;24.60;99.90;;;;;;6325923;22;20398;-96
2021/08/15 07:28:27;;;;;;;22.10;11.43;;;24.90;99.90;;;;;;6227086;23;20436;-96
2021/08/15 07:31:33;;;;;;;;;;;;;;;;;;;;;
2021/08/15 07:35:07;;;;;;;;;;;;;;;;;;;;;
2021/08/15 07:38:25;;;;;;;;;;;;;;;;;;;;;
2021/08/15 07:46:14;;;;;;;;;;;;;;;;;;;;;
2021/08/15 07:49:28;;;;;;;20.35;11.48;;;24.70;99.90;;;;;;5942627;24;20398;-96
2021/08/15 07:52:05;;;;;;;22.25;10.43;;;25.20;99.90;;;;;;5949658;24;20467;-96
2021/08/15 07:55:07;;;;;;;22.35;10.23;;;25.40;99.90;;;;;;5940024;24;20399;-96
2021/08/15 07:57:48;;;;;;;21.63;9.75;;;25.10;99.90;;;;;;5937779;24;20405;-96
2021/08/15 08:00:59;;;;;;;29.23;10.10;;;25.40;99.90;;;;;;5941764;24;20403;-96
2021/08/15 08:03:52;;;;;;;25.75;10.48;;;25.10;99.90;;;;;;5976231;23;20389;-96
2021/08/15 08:07:22;;;;;;;19.53;10.20;;;25.00;99.90;;;;;;5931819;24;20399;-96
2021/08/15 08:09:56;;;;;;;20.55;9.45;;;25.10;99.90;;;;;;5936728;24;20479;-96
2021/08/15 08:12:26;;;;;;;24.45;9.77;;;25.10;99.90;;;;;;5916295;24;20411;-96
2021/08/15 08:14:56;;;;;;;24.80;10.38;;;25.30;99.90;;;;;;5913485;24;20898;-96
2021/08/15 08:17:28;;;;;;;21.00;9.57;;;25.40;99.90;;;;;;5912404;24;20498;-96
2021/08/15 08:20:01;;;;;;;17.30;9.20;;;25.50;99.90;;;;;;5914139;24;20468;-96
2021/08/15 08:22:46;;;;;;;20.73;9.30;;;25.70;99.90;;;;;;5966921;23;20399;-96
2021/08/15 08:25:43;;;;;;;19.90;9.60;;;25.90;99.90;;;;;;6193471;22;20369;-96
2021/08/15 08:28:25;;;;;;;22.00;9.63;;;26.10;99.90;;;;;;6321058;22;20385;-96
2021/08/15 08:31:04;;;;;;;17.67;9.75;;;26.30;99.90;;;;;;6325084;22;20397;-96
2021/08/15 08:33:38;;;;;;;22.17;9.93;;;26.40;99.90;;;;;;6305527;22;20384;-96
2021/08/15 08:36:07;;;;;;;19.67;9.82;;;26.70;99.90;;;;;;6328776;22;20680;-96
2021/08/15 08:38:55;;;;;;;23.50;9.80;;;26.60;99.90;;;;;;6355499;22;20369;-96
2021/08/15 08:41:34;;;;;;;22.58;10.23;;;26.70;99.90;;;;;;6331729;22;20408;-96
2021/08/15 08:44:16;;;;;;;21.95;10.25;;;26.50;99.90;;;;;;6327793;22;20385;-96
2021/08/15 08:47:07;;;;;;;18.02;9.63;;;26.40;99.90;;;;;;6323002;22;20373;-96
2021/08/15 08:49:50;;;;;;;18.45;9.68;;;26.60;99.90;;;;;;6358328;22;20415;-96
2021/08/15 08:52:29;;;;;;;21.15;9.77;;;26.60;99.90;;;;;;6325675;22;20849;-96
2021/08/15 08:55:05;;;;;;;25.05;9.65;;;26.70;99.90;;;;;;6333408;22;20377;-96
2021/08/15 08:57:40;;;;;;;23.77;9.80;;;26.80;99.90;;;;;;6331671;22;20389;-96
2021/08/15 09:00:13;;;;;;;21.58;9.43;;;27.00;99.90;;;;;;6328218;22;20397;-96
2021/08/15 09:02:44;;;;;;;19.60;9.18;;;26.60;99.90;;;;;;6324700;22;20419;-96
2021/08/15 09:05:37;;;;;;;20.73;9.38;;;26.60;99.90;;;;;;6324840;22;20376;-96
2021/08/15 09:08:33;;;;;;;21.10;9.07;;;27.00;99.90;;;;;;6324427;22;20451;-96
2021/08/15 09:11:27;;;;;;;19.50;8.40;;;27.10;99.90;;;;;;6323255;22;20412;-96
2021/08/15 09:14:09;;;;;;;21.25;9.45;;;26.80;99.90;;;;;;6329457;22;20385;-96
2021/08/15 09:17:10;;;;;;;30.83;9.55;;;26.60;99.90;;;;;;6350750;22;20392;-96
2021/08/15 09:22:49;;;;;;;20.38;9.40;;;26.30;99.90;;;;;;6347534;22;20373;-96
2021/08/15 09:28:33;;;;;;;23.45;8.38;;;26.70;99.90;;;;;;6290614;22;20377;-96
2021/08/15 09:31:32;;;;;;;18.15;7.85;;;27.10;99.90;;;;;;6284998;22;20400;-96
2021/08/15 09:34:03;;;;;;;15.35;7.28;;;27.00;99.90;;;;;;6265540;22;20451;-96
2021/08/15 09:36:57;;;;;;;24.30;7.68;;;26.90;99.90;;;;;;6267318;22;20375;-96
2021/08/15 09:39:45;;;;;;;17.52;7.18;;;26.50;99.90;;;;;;6270916;22;20376;-96
2021/08/15 09:42:39;;;;;;;18.25;7.65;;;26.30;99.90;;;;;;6263850;22;20384;-96
2021/08/15 09:48:39;;;;;;;22.38;7.90;;;26.70;99.90;;;;;;6387257;22;20387;-96
2021/08/15 09:51:23;;;;;;;23.55;8.63;;;26.80;99.90;;;;;;6382724;22;20472;-96
2021/08/15 09:53:53;;;;;;;18.85;8.05;;;27.00;99.90;;;;;;6357511;22;20379;-96
2021/08/15 09:57:04;;;;;;;20.97;7.30;;;27.70;99.90;;;;;;6366413;22;20402;-96
2021/08/15 10:00:30;;;;;;;16.55;7.20;;;28.00;99.90;;;;;;6238696;22;20468;-96
2021/08/15 10:03:03;;;;;;;25.05;8.15;;;28.20;99.90;;;;;;6326412;22;20387;-96
2021/08/15 10:05:45;;;;;;;20.80;8.50;;;28.20;99.90;;;;;;6389019;22;20379;-96
2021/08/15 10:09:13;;;;;;;22.50;7.65;;;28.20;99.90;;;;;;6381485;22;20389;-96
2021/08/15 10:12:21;;;;;;;23.40;7.80;;;27.90;99.90;;;;;;6262970;22;20438;-96
2021/08/15 10:15:49;;;;;;;20.25;7.55;;;27.50;99.90;;;;;;6368396;22;20445;-96
2021/08/15 10:18:34;;;;;;;18.13;6.93;;;27.10;99.90;;;;;;6390870;22;20459;-96
2021/08/15 10:21:57;;;;;;;16.80;7.38;;;27.00;99.90;;;;;;6393670;22;20376;-96
2021/08/15 10:24:43;;;;;;;16.88;6.90;;;26.80;99.90;;;;;;6322859;22;20382;-96
2021/08/15 10:28:08;;;;;;;18.25;7.75;;;26.80;99.90;;;;;;6294318;22;20854;-96
2021/08/15 10:33:34;;;;;;;19.10;7.20;;;27.30;99.90;;;;;;6377259;22;20836;-96
2021/08/15 10:36:23;;;;;;;22.58;7.30;;;27.10;99.90;;;;;;6356319;22;20386;-96
2021/08/15 10:38:54;;;;;;;19.92;7.78;;;27.00;99.90;;;;;;6354476;22;20387;-96
2021/08/15 10:41:50;;;;;;;16.10;7.60;;;27.00;99.90;;;;;;6354051;22;20409;-95
2021/08/15 10:44:22;;;;;;;26.25;7.60;;;27.00;99.90;;;;;;6354501;22;20378;-96
2021/08/15 10:47:54;;;;;;;19.67;7.43;;;27.10;99.90;;;;;;6359590;22;20374;-96
2021/08/15 10:50:56;;;;;;;22.73;8.40;;;26.80;99.90;;;;;;6204396;23;20402;-96
2021/08/15 10:53:29;;;;;;;20.33;8.00;;;26.80;99.90;;;;;;6195875;23;20403;-96
2021/08/15 10:56:10;;;;;;;21.47;7.23;;;26.90;99.90;;;;;;6200001;23;20387;-96
2021/08/15 10:58:51;;;;;;;21.77;8.20;;;27.10;99.90;;;;;;6196809;23;20935;-96
2021/08/15 11:02:33;;;;;;;22.33;7.63;;;27.00;99.90;;;;;;6199444;23;20409;-96
2021/08/15 11:05:10;;;;;;;24.10;7.60;;;26.80;99.90;;;;;;6172133;23;20379;-96
2021/08/15 11:07:45;;;;;;;24.55;8.00;;;26.70;99.90;;;;;;6199752;23;20395;-96
2021/08/15 11:10:24;;;;;;;20.33;7.35;;;26.70;99.90;;;;;;6164081;23;20393;-96
2021/08/15 11:13:19;;;;;;;21.33;7.75;;;26.70;99.90;;;;;;6165691;23;20853;-96
2021/08/15 11:19:30;;;;;;;25.73;7.75;;;26.90;99.90;;;;;;6167136;23;20446;-96
2021/08/15 11:22:22;;;;;;;25.02;7.90;;;26.80;99.90;;;;;;6163044;23;20387;-96
2021/08/15 11:25:09;;;;;;;24.70;8.20;;;26.80;99.90;;;;;;6176124;22;20380;-96
2021/08/15 11:27:54;;;;;;;21.90;7.63;;;26.80;99.90;;;;;;6303741;22;20372;-96
2021/08/15 11:30:39;;;;;;;23.40;7.53;;;27.10;99.90;;;;;;6262269;22;20388;-96
2021/08/15 11:33:12;;;;;;;22.25;7.60;;;27.20;99.90;;;;;;6241559;23;20393;-96
2021/08/15 11:35:54;;;;;;;19.13;6.95;;;27.20;99.90;;;;;;6209881;23;20408;-96
2021/08/15 11:38:26;;;;;;;27.83;7.68;;;27.40;99.90;;;;;;6255365;23;20386;-96
2021/08/15 11:41:31;;;;;;;;;;;;;;;;;;;;;
2021/08/15 11:44:16;;;;;;;23.23;7.75;;;27.70;99.90;;;;;;6351908;22;20385;-96
2021/08/15 11:47:02;;;;;;;;;;;;;;;;;;;;;
2021/08/15 11:49:44;;;;;;;26.23;7.55;;;28.20;99.90;;;;;;6353197;22;20369;-96
2021/08/15 11:52:22;;;;;;;26.90;7.47;;;28.60;99.90;;;;;;6324945;22;20786;-96
2021/08/15 11:54:54;;;;;;;21.27;7.63;;;29.00;99.90;;;;;;6331480;22;20380;-96
2021/08/15 11:58:02;;;;;;;21.13;7.47;;;29.10;99.90;;;;;;6311714;22;20407;31
2021/08/15 12:00:53;;;;;;;22.25;7.00;;;29.10;99.90;;;;;;6230379;23;20753;-96
2021/08/15 12:03:27;;;;;;;22.80;7.03;;;29.30;99.90;;;;;;6233550;23;20413;-96
2021/08/15 12:06:10;;;;;;;26.55;8.00;;;29.60;99.90;;;;;;6235659;23;20438;-96
2021/08/15 12:08:42;;;;;;;28.10;7.50;;;29.90;99.90;;;;;;6208814;23;20409;-96
2021/08/15 12:11:34;;;;;;;22.13;7.15;;;29.80;99.90;;;;;;6230484;23;20529;-96
2021/08/15 12:14:07;;;;;;;23.13;7.00;;;29.90;99.90;;;;;;6235965;23;20390;-96
2021/08/15 12:16:42;;;;;;;21.60;7.10;;;30.10;99.90;;;;;;6230572;23;20382;-96
2021/08/15 12:19:33;;;;;;;18.80;6.90;;;30.20;99.90;;;;;;6234284;23;20376;-96
2021/08/15 12:22:36;;;;;;;23.75;7.00;;;30.60;99.90;;;;;;6165753;23;20389;-96
2021/08/15 12:25:07;;;;;;;20.90;7.07;;;30.80;99.90;;;;;;6148864;23;20375;-96
2021/08/15 12:27:35;;;;;;;24.53;7.33;;;31.00;99.90;;;;;;6141534;23;20390;-96
2021/08/15 12:30:14;;;;;;;22.58;7.45;;;30.60;99.90;;;;;;6148598;23;20536;-96
2021/08/15 12:32:45;;;;;;;22.50;6.93;;;30.70;99.90;;;;;;6175143;23;20401;-96
2021/08/15 12:35:43;;;;;;;24.65;7.10;;;30.80;98.90;;;;;;6153120;23;20453;-96
2021/08/15 12:38:28;;;;;;;20.38;6.82;;;31.00;98.30;;;;;;6177129;23;20413;-96
2021/08/15 12:41:29;;;;;;;27.02;7.22;;;31.00;99.40;;;;;;6171484;23;20381;-96
2021/08/15 12:44:15;;;;;;;21.95;6.75;;;31.20;98.10;;;;;;6170985;23;20886;-96
2021/08/15 12:47:11;;;;;;;22.23;6.57;;;31.70;98.20;;;;;;6164450;23;20390;-96
2021/08/15 12:49:50;;;;;;;19.33;6.70;;;32.10;98.00;;;;;;6292582;22;20397;-96
2021/08/15 12:52:42;;;;;;;21.98;7.22;;;32.30;97.00;;;;;;6318207;22;20393;-96
2021/08/15 12:55:13;;;;;;;21.27;6.90;;;32.20;97.40;;;;;;6328387;22;20434;-96
2021/08/15 12:58:06;;;;;;;24.58;6.75;;;32.20;96.40;;;;;;6354258;22;20793;-96
2021/08/15 13:01:02;;;;;;;23.90;6.88;;;32.50;97.00;;;;;;6362699;22;20395;-96
2021/08/15 13:03:45;;;;;;;20.42;6.40;;;32.60;97.40;;;;;;6321394;22;20378;-96
2021/08/15 13:09:17;;;;;;;22.98;7.07;;;32.80;93.40;;;;;;6298847;22;20599;-96
2021/08/15 13:12:13;;;;;;;17.33;6.15;;;32.20;93.70;;;;;;6356733;22;20405;-96
2021/08/15 13:15:26;;;;;;;19.33;6.65;;;32.40;94.60;;;;;;6363315;22;20409;-96
2021/08/15 13:20:30;;;;;;;24.63;6.82;;;32.70;93.50;;;;;;6347503;22;20518;-96
2021/08/15 13:22:59;;;;;;;21.27;6.85;;;33.00;93.00;;;;;;6329945;22;20391;-96
2021/08/15 13:25:29;;;;;;;23.13;6.72;;;33.20;93.90;;;;;;6382167;22;20368;-96
2021/08/15 13:27:58;;;;;;;19.30;6.38;;;33.20;92.00;;;;;;6365554;22;20415;-96
2021/08/15 13:30:26;;;;;;;22.02;6.50;;;33.40;92.60;;;;;;6351698;22;20386;-96
2021/08/15 13:33:01;;;;;;;22.20;6.70;;;33.50;94.30;;;;;;6352844;22;20387;-96
2021/08/15 13:35:49;;;;;;;20.38;7.03;;;33.60;91.30;;;;;;6354763;22;20376;-96
2021/08/15 13:38:28;;;;;;;19.60;6.30;;;33.50;90.80;;;;;;6358081;22;20454;-96
2021/08/15 13:41:00;;;;;;;21.17;6.57;;;33.20;91.30;;;;;;6352620;22;20458;-96
2021/08/15 13:43:29;;;;;;;20.60;6.50;;;33.00;92.00;;;;;;6352555;22;20451;-96
2021/08/15 13:48:40;;;;;;;22.77;6.72;;;33.50;90.80;;;;;;6322350;22;20416;-96
2021/08/15 13:51:32;;;;;;;22.30;7.07;;;33.50;91.30;;;;;;6299997;22;20370;-96
2021/08/15 13:54:18;;;;;;;17.50;6.45;;;33.70;92.00;;;;;;6295148;22;20390;-96
2021/08/15 13:57:09;;;;;;;20.77;6.80;;;34.20;90.30;;;;;;6295979;22;20378;-96
2021/08/15 13:59:44;;;;;;;22.15;6.60;;;34.10;87.70;;;;;;6309784;22;20389;-96
2021/08/15 14:02:15;;;;;;;23.38;7.05;;;33.80;90.30;;;;;;6289699;22;20382;-96
2021/08/15 14:04:42;;;;;;;20.55;6.60;;;33.30;90.50;;;;;;6287782;22;20451;-96
2021/08/15 14:07:10;;;;;;;24.73;6.78;;;32.30;89.80;;;;;;6288976;22;20397;-96
2021/08/15 14:09:58;;;;;;;23.60;7.15;;;31.50;90.40;;;;;;6283250;22;20420;-95
2021/08/15 14:12:25;;;;;;;23.65;7.18;;;31.00;95.80;;;;;;6287820;22;20464;-96
2021/08/15 14:15:03;;;;;;;21.13;7.32;;;30.50;93.80;;;;;;6287757;22;20386;-96
2021/08/15 14:17:44;;;;;;;26.10;7.63;;;30.20;94.20;;;;;;6286042;22;20444;-96